Time;durP1;ratioP1;P1;durP2;ratioP2;P2;SDS_P1;SDS_P2;PMS_P1;PMS_P2;Temp;Humidity;BMP_temperature;BMP_pressure;BME280_temperature;BME280_humidity;BME280_pressure;Samples;Min_cycle;Max_cycle;Signal;HPM_P1;HPM_P2
2022/05/30 00:01:54;;;;;;;6.07;2.85;;;9.40;99.90;;;;;;4994240;28;20041;-53
2022/05/30 00:04:20;;;;;;;7.47;3.08;;;9.40;99.90;;;;;;4992889;28;20029;-53
2022/05/30 00:06:45;;;;;;;5.32;2.78;;;9.30;99.90;;;;;;4993824;28;20069;-53
2022/05/30 00:09:13;;;;;;;8.13;2.50;;;9.20;99.90;;;;;;4993931;28;20159;-53
2022/05/30 00:11:40;;;;;;;7.68;2.75;;;9.10;99.90;;;;;;4993228;28;20391;-53
2022/05/30 00:14:06;;;;;;;8.85;2.90;;;9.10;99.90;;;;;;4993867;28;20132;-53
2022/05/30 00:16:33;;;;;;;6.35;2.67;;;8.90;99.90;;;;;;4994311;28;20100;-54
2022/05/30 00:18:59;;;;;;;6.43;3.10;;;8.80;99.90;;;;;;4993969;28;20027;-53
2022/05/30 00:21:25;;;;;;;10.95;3.30;;;8.90;99.90;;;;;;4994341;28;20030;-53
2022/05/30 00:23:54;;;;;;;9.98;3.05;;;9.00;99.90;;;;;;4993591;28;20030;-55
2022/05/30 00:26:24;;;;;;;6.35;3.28;;;8.90;99.90;;;;;;4993779;28;20022;-53
2022/05/30 00:28:50;;;;;;;6.20;3.13;;;8.80;99.90;;;;;;4993781;28;20468;-53
2022/05/30 00:31:18;;;;;;;9.50;3.30;;;8.80;99.90;;;;;;4993790;28;20022;-57
2022/05/30 00:33:45;;;;;;;8.10;3.47;;;8.90;99.90;;;;;;4992631;28;20081;-53
2022/05/30 00:36:11;;;;;;;13.70;3.58;;;8.90;99.90;;;;;;4993526;28;20030;-53
2022/05/30 00:38:38;;;;;;;8.10;3.50;;;9.00;99.90;;;;;;4993410;28;20484;-53
2022/05/30 00:41:03;;;;;;;9.60;3.83;;;9.00;99.90;;;;;;5008249;28;20026;-54
2022/05/30 00:43:33;;;;;;;9.55;3.50;;;9.00;99.90;;;;;;4993328;28;20383;-53
2022/05/30 00:46:02;;;;;;;7.40;2.95;;;9.10;99.90;;;;;;4993479;28;20037;-53
2022/05/30 00:48:40;;;;;;;7.10;3.22;;;9.10;99.90;;;;;;4992376;28;20038;-54
2022/05/30 00:51:13;;;;;;;5.20;3.35;;;9.10;99.90;;;;;;4993430;28;20030;-53
2022/05/30 00:53:40;;;;;;;;;;;9.10;99.90;;;;;;4993810;28;20023;-53
2022/05/30 00:56:09;;;;;;;12.93;5.03;;;9.20;99.90;;;;;;4993537;28;19917;-54
2022/05/30 00:58:40;;;;;;;8.35;3.60;;;9.20;99.90;;;;;;4992192;28;20434;-53
2022/05/30 01:01:06;;;;;;;8.85;3.63;;;9.20;99.90;;;;;;4993369;28;20105;-52
2022/05/30 01:06:31;;;;;;;6.00;3.50;;;9.20;99.90;;;;;;4993165;28;20569;-53
2022/05/30 01:08:57;;;;;;;8.43;3.55;;;9.10;99.90;;;;;;4993141;28;20076;-53
2022/05/30 01:11:23;;;;;;;8.82;4.47;;;9.10;99.90;;;;;;4993561;28;20114;-53
2022/05/30 01:13:49;;;;;;;8.15;3.80;;;9.10;99.90;;;;;;4993101;28;20514;-53
2022/05/30 01:16:14;;;;;;;7.07;3.53;;;9.10;99.90;;;;;;4993497;28;20065;-53
2022/05/30 01:18:50;;;;;;;5.70;3.97;;;9.00;99.90;;;;;;4992941;28;20773;-53
2022/05/30 01:21:51;;;;;;;8.82;4.10;;;9.00;99.90;;;;;;4992991;28;20026;-53
2022/05/30 01:24:19;;;;;;;11.68;3.97;;;9.00;99.90;;;;;;4992999;28;20026;-53
2022/05/30 01:27:02;;;;;;;10.30;4.20;;;9.00;99.90;;;;;;4991457;28;20027;-53
2022/05/30 01:29:34;;;;;;;7.07;4.47;;;9.00;99.90;;;;;;4993004;28;20030;-53
2022/05/30 01:32:00;;;;;;;11.32;4.80;;;9.00;99.90;;;;;;4992854;28;20031;-54
2022/05/30 01:34:27;;;;;;;8.57;4.50;;;9.00;99.90;;;;;;4992778;28;20868;-54
2022/05/30 01:36:53;;;;;;;7.97;4.93;;;9.00;99.90;;;;;;4992947;28;20466;-53
2022/05/30 01:39:19;;;;;;;9.32;4.65;;;9.00;99.90;;;;;;4992693;28;20033;-53
2022/05/30 01:41:45;;;;;;;14.25;4.95;;;9.00;99.90;;;;;;4992995;28;20041;-53
2022/05/30 01:44:11;;;;;;;10.02;4.95;;;9.00;99.90;;;;;;4992807;28;20498;-53
2022/05/30 01:46:37;;;;;;;13.23;4.90;;;9.00;99.90;;;;;;4992558;28;20030;-53
2022/05/30 01:49:03;;;;;;;10.88;5.07;;;8.80;99.90;;;;;;5007659;28;20049;-54
2022/05/30 01:51:29;;;;;;;10.07;5.25;;;8.90;99.90;;;;;;4992947;28;20037;-58
2022/05/30 01:53:55;;;;;;;9.23;4.75;;;8.90;99.90;;;;;;4991257;28;20026;-53
2022/05/30 01:56:21;;;;;;;12.45;5.80;;;8.60;99.90;;;;;;4992621;28;20027;-54
2022/05/30 01:58:47;;;;;;;10.40;5.50;;;8.50;99.90;;;;;;4993079;28;20030;-53
2022/05/30 02:01:22;;;;;;;10.05;5.18;;;8.50;99.90;;;;;;4992647;28;20853;-53
2022/05/30 02:03:49;;;;;;;12.43;6.22;;;8.40;99.90;;;;;;4992665;28;20094;-54
2022/05/30 02:06:15;;;;;;;10.00;5.53;;;8.30;99.90;;;;;;4992397;28;20466;-53
2022/05/30 02:08:42;;;;;;;8.50;5.88;;;8.40;99.90;;;;;;4992163;28;20061;-53
2022/05/30 02:11:10;;;;;;;11.25;5.82;;;8.30;99.90;;;;;;4992378;28;20026;-53
2022/05/30 02:13:37;;;;;;;10.13;6.22;;;8.20;99.90;;;;;;4992112;28;20078;-55
2022/05/30 02:18:56;;;;;;;17.83;6.93;;;8.10;99.90;;;;;;5000906;28;20046;-53
2022/05/30 02:21:21;;;;;;;12.07;6.70;;;8.00;99.90;;;;;;4992239;28;20038;-53
2022/05/30 02:23:47;;;;;;;11.90;6.70;;;8.10;99.90;;;;;;4991800;28;20030;-53
2022/05/30 02:26:13;;;;;;;16.70;6.93;;;8.10;99.90;;;;;;4992371;28;20084;-55
2022/05/30 02:28:38;;;;;;;11.80;6.63;;;8.10;99.90;;;;;;4992041;28;20073;-53
2022/05/30 02:31:04;;;;;;;11.18;6.20;;;8.10;99.90;;;;;;4992407;28;20061;-53
2022/05/30 02:38:59;;;;;;;11.40;6.55;;;8.00;99.90;;;;;;4996283;28;20208;-53
2022/05/30 02:41:25;;;;;;;11.85;7.25;;;7.80;99.90;;;;;;4996034;28;20030;-54
2022/05/30 02:43:50;;;;;;;13.00;7.95;;;7.80;99.90;;;;;;4996004;28;20595;-53
2022/05/30 02:46:17;;;;;;;10.65;7.05;;;7.80;99.90;;;;;;4996144;28;20023;-53
2022/05/30 02:48:43;;;;;;;15.68;6.72;;;7.80;99.90;;;;;;4996025;28;20036;-55
2022/05/30 02:51:08;;;;;;;13.00;7.65;;;7.80;99.90;;;;;;4995737;28;20034;-53
2022/05/30 02:53:34;;;;;;;15.15;7.80;;;7.90;99.90;;;;;;4995588;28;20030;-53
2022/05/30 02:56:01;;;;;;;19.77;8.73;;;8.10;99.90;;;;;;4995833;28;20037;-55
2022/05/30 02:58:26;;;;;;;18.63;9.00;;;8.10;99.90;;;;;;4995964;28;20497;-53
2022/05/30 03:00:52;;;;;;;14.18;9.70;;;8.10;99.90;;;;;;4995999;28;20046;-53
2022/05/30 03:03:18;;;;;;;14.60;8.93;;;8.30;99.90;;;;;;4995657;28;20069;-53
2022/05/30 03:05:44;;;;;;;16.92;9.05;;;8.50;99.90;;;;;;5010453;28;20390;-53
2022/05/30 03:08:11;;;;;;;19.20;10.13;;;8.50;99.90;;;;;;4995717;28;20104;-55
2022/05/30 03:10:37;;;;;;;18.25;9.65;;;8.30;99.90;;;;;;4995545;28;20085;-53
2022/05/30 03:13:03;;;;;;;18.27;9.10;;;8.30;99.90;;;;;;4995371;28;20041;-53
2022/05/30 03:15:29;;;;;;;13.63;8.63;;;8.20;99.90;;;;;;4995488;28;20447;-53
2022/05/30 03:17:55;;;;;;;12.38;8.57;;;8.10;99.90;;;;;;4995562;28;20034;-54
2022/05/30 03:20:20;;;;;;;15.00;8.50;;;8.00;99.90;;;;;;4995337;28;20444;-53
2022/05/30 03:22:47;;;;;;;16.70;9.05;;;8.10;99.90;;;;;;4995504;28;20486;-53
2022/05/30 03:25:14;;;;;;;16.13;8.98;;;8.10;99.90;;;;;;4995764;28;20061;-53
2022/05/30 03:27:40;;;;;;;14.20;9.48;;;8.00;99.90;;;;;;4993717;28;20030;-54
2022/05/30 03:30:06;;;;;;;18.38;9.32;;;8.00;99.90;;;;;;4995252;28;20398;-53
2022/05/30 03:32:33;;;;;;;15.07;9.35;;;8.00;99.90;;;;;;4995539;28;20034;-54
2022/05/30 03:34:59;;;;;;;16.88;8.82;;;8.10;99.90;;;;;;4993930;28;20027;-53
2022/05/30 03:37:25;;;;;;;18.50;9.93;;;8.20;99.90;;;;;;4995088;28;20484;-53
2022/05/30 03:39:51;;;;;;;17.95;10.13;;;8.20;99.90;;;;;;4995161;28;20042;-53
2022/05/30 03:42:17;;;;;;;19.55;10.25;;;8.20;99.90;;;;;;4994890;28;20015;-53
2022/05/30 03:44:43;;;;;;;18.73;10.35;;;8.20;99.90;;;;;;4994650;28;20100;-57
2022/05/30 03:47:09;;;;;;;18.10;11.18;;;8.30;99.90;;;;;;4994912;28;20031;-54
2022/05/30 03:49:35;;;;;;;22.35;11.25;;;8.30;99.90;;;;;;4994740;28;20058;-53
2022/05/30 03:52:01;;;;;;;18.40;11.27;;;8.10;99.90;;;;;;4994819;28;20069;-53
2022/05/30 03:54:27;;;;;;;18.75;10.95;;;7.90;99.90;;;;;;4994731;28;20026;-54
2022/05/30 03:56:52;;;;;;;20.90;10.60;;;7.70;99.90;;;;;;4994454;28;20036;-53
2022/05/30 03:59:18;;;;;;;17.65;10.75;;;7.70;99.90;;;;;;4994436;28;20038;-53
2022/05/30 04:01:46;;;;;;;22.60;10.57;;;7.70;99.90;;;;;;4994567;28;20026;-54
2022/05/30 04:04:13;;;;;;;16.75;11.02;;;7.70;99.90;;;;;;5009110;28;20030;-54
2022/05/30 04:06:40;;;;;;;19.38;10.82;;;7.80;99.90;;;;;;4994116;28;20030;-53
2022/05/30 04:09:06;;;;;;;19.58;10.23;;;7.80;99.90;;;;;;4994658;28;20037;-53
2022/05/30 04:11:32;;;;;;;14.88;9.77;;;7.80;99.90;;;;;;4994311;28;20030;-53
2022/05/30 04:13:57;;;;;;;13.75;8.77;;;7.80;99.90;;;;;;4994382;28;20116;-54
2022/05/30 04:16:23;;;;;;;20.33;9.50;;;7.90;99.90;;;;;;4994316;28;20502;-54
2022/05/30 04:18:49;;;;;;;15.52;9.07;;;7.90;99.90;;;;;;4993917;28;20030;-54
2022/05/30 04:21:15;;;;;;;20.05;9.70;;;8.00;99.90;;;;;;4994242;28;20031;-54
2022/05/30 04:23:42;;;;;;;16.00;9.73;;;8.10;99.90;;;;;;4994058;28;20423;-55
2022/05/30 04:26:09;;;;;;;12.77;9.30;;;8.20;99.90;;;;;;4994171;28;20018;-54
2022/05/30 04:28:35;;;;;;;15.65;9.32;;;8.30;99.90;;;;;;4993673;28;20058;-54
2022/05/30 04:31:10;;;;;;;13.93;8.05;;;8.40;99.90;;;;;;4994264;28;20108;-56
2022/05/30 04:33:37;;;;;;;14.57;8.30;;;8.50;99.90;;;;;;4994090;28;20438;-54
2022/05/30 04:36:03;;;;;;;14.05;8.18;;;8.70;99.90;;;;;;4993804;28;20451;-54
2022/05/30 04:38:32;;;;;;;13.52;8.40;;;8.80;99.90;;;;;;4993944;28;20033;-55
2022/05/30 04:40:57;;;;;;;13.82;8.52;;;8.60;99.90;;;;;;4992767;28;20033;-53
2022/05/30 04:43:23;;;;;;;14.30;8.98;;;8.50;99.90;;;;;;4993501;28;20038;-53
2022/05/30 04:46:04;;;;;;;15.88;8.80;;;8.60;99.90;;;;;;4993577;28;20023;-54
2022/05/30 04:48:29;;;;;;;18.48;9.30;;;8.70;99.90;;;;;;4993910;28;20382;-54
2022/05/30 04:50:55;;;;;;;13.82;9.48;;;8.90;99.90;;;;;;4992977;28;20101;-53
2022/05/30 04:53:20;;;;;;;14.50;9.02;;;9.00;99.90;;;;;;4992760;28;20037;-53
2022/05/30 04:55:46;;;;;;;14.82;9.43;;;9.00;99.90;;;;;;4992831;28;20031;-53
2022/05/30 04:58:11;;;;;;;17.20;9.32;;;9.00;99.90;;;;;;4992450;28;20065;-53
2022/05/30 05:00:37;;;;;;;22.88;9.40;;;9.20;99.90;;;;;;4992928;28;20339;-53
2022/05/30 05:03:03;;;;;;;16.90;9.80;;;9.30;99.90;;;;;;4992826;28;20076;-53
2022/05/30 05:05:28;;;;;;;15.18;9.13;;;9.50;99.90;;;;;;4992850;28;20030;-53
2022/05/30 05:08:06;;;;;;;14.95;8.68;;;9.50;99.90;;;;;;4992492;28;20475;-53
2022/05/30 05:10:31;;;;;;;15.30;8.55;;;9.40;99.90;;;;;;4992514;28;20038;-53
2022/05/30 05:12:57;;;;;;;14.80;7.85;;;9.40;99.90;;;;;;4992182;28;20041;-53
2022/05/30 05:15:23;;;;;;;10.70;7.40;;;9.50;99.90;;;;;;4992518;28;20030;-53
2022/05/30 05:17:48;;;;;;;14.52;7.85;;;9.50;99.90;;;;;;4992689;28;20399;-53
2022/05/30 05:20:14;;;;;;;13.65;7.70;;;9.80;99.90;;;;;;4992995;28;20096;-53
2022/05/30 05:22:40;;;;;;;14.20;9.02;;;10.00;99.90;;;;;;4990777;28;20023;-53
2022/05/30 05:25:06;;;;;;;19.27;8.55;;;10.00;99.90;;;;;;4992209;28;20546;-54
2022/05/30 05:27:32;;;;;;;21.40;7.93;;;10.10;99.90;;;;;;4992475;28;20023;-54
2022/05/30 05:29:57;;;;;;;13.77;7.10;;;10.30;99.90;;;;;;4992285;28;20399;-54
2022/05/30 05:32:23;;;;;;;13.00;7.60;;;10.50;99.90;;;;;;4992029;28;20069;-54
2022/05/30 05:34:50;;;;;;;13.70;7.55;;;10.70;99.90;;;;;;5007447;28;20034;-54
2022/05/30 05:37:17;;;;;;;12.32;6.18;;;10.80;99.90;;;;;;4992118;28;20029;-54
2022/05/30 05:39:43;;;;;;;13.70;7.63;;;10.80;99.90;;;;;;4992194;28;20033;-54
2022/05/30 05:42:09;;;;;;;14.85;7.25;;;10.90;99.90;;;;;;4992087;28;20022;-54
2022/05/30 05:44:34;;;;;;;11.40;6.80;;;10.90;99.90;;;;;;4993037;28;20483;-54
2022/05/30 05:47:00;;;;;;;13.27;7.45;;;11.00;99.90;;;;;;4991735;28;20030;-53
2022/05/30 05:49:26;;;;;;;13.88;6.95;;;11.20;99.90;;;;;;4989028;28;20434;-53
2022/05/30 05:51:54;;;;;;;13.15;7.07;;;11.30;99.90;;;;;;4992059;28;20113;-53
2022/05/30 05:54:22;;;;;;;16.13;6.50;;;11.30;99.90;;;;;;4991709;28;20431;-53
2022/05/30 05:56:48;;;;;;;9.73;5.95;;;11.40;99.90;;;;;;4991242;28;20129;-53
2022/05/30 05:59:14;;;;;;;13.52;5.80;;;11.60;99.90;;;;;;4990911;28;20034;-53
2022/05/30 06:01:39;;;;;;;12.30;6.22;;;11.60;99.90;;;;;;4982871;28;20054;-53
2022/05/30 06:04:08;;;;;;;11.55;5.88;;;11.70;99.90;;;;;;4984373;28;20129;-53
2022/05/30 06:06:34;;;;;;;15.70;6.38;;;11.80;99.90;;;;;;4979090;28;20031;-53
2022/05/30 06:09:01;;;;;;;13.07;5.80;;;12.00;99.90;;;;;;4983217;28;20514;-53
2022/05/30 06:11:28;;;;;;;10.85;5.40;;;12.30;99.90;;;;;;4988702;28;20019;-53
2022/05/30 06:13:54;;;;;;;16.13;5.05;;;12.50;99.90;;;;;;4983298;28;20057;-54
2022/05/30 06:16:32;;;;;;;14.45;5.13;;;12.60;99.90;;;;;;4982051;28;20038;-53
2022/05/30 06:19:01;;;;;;;13.77;4.88;;;12.60;99.90;;;;;;4981081;28;20069;-53
2022/05/30 06:21:29;;;;;;;10.95;5.07;;;12.90;99.90;;;;;;4980064;28;20039;-53
2022/05/30 06:23:56;;;;;;;15.98;5.10;;;12.90;99.90;;;;;;4976927;28;20486;-53
2022/05/30 06:26:23;;;;;;;12.48;4.22;;;13.00;99.90;;;;;;4981135;28;20191;-54
2022/05/30 06:28:50;;;;;;;14.25;5.30;;;13.20;99.90;;;;;;4976975;28;20034;-56
2022/05/30 06:31:22;;;;;;;19.90;5.32;;;13.40;99.90;;;;;;4975288;28;20038;-57
2022/05/30 06:33:48;;;;;;;10.77;5.33;;;13.60;99.90;;;;;;4977676;28;20045;-56
2022/05/30 06:36:17;;;;;;;10.40;5.20;;;13.60;99.90;;;;;;4982008;28;20296;-56
2022/05/30 06:38:43;;;;;;;11.88;5.10;;;13.50;99.90;;;;;;4978454;28;20057;-56
2022/05/30 06:41:19;;;;;;;10.45;4.95;;;13.60;99.90;;;;;;4983325;28;20026;-57
2022/05/30 06:43:45;;;;;;;12.10;4.40;;;13.80;99.90;;;;;;4974115;28;20053;-57
2022/05/30 06:46:13;;;;;;;11.95;3.80;;;13.70;99.90;;;;;;4976997;28;20038;-56
2022/05/30 06:48:39;;;;;;;10.20;3.90;;;14.00;99.90;;;;;;4977288;28;20061;-56
2022/05/30 06:51:08;;;;;;;10.70;3.88;;;14.30;99.90;;;;;;4991829;28;20061;-57
2022/05/30 06:53:34;;;;;;;11.50;3.63;;;14.60;99.90;;;;;;4980803;28;20034;-57
2022/05/30 06:56:00;;;;;;;20.13;5.07;;;15.10;99.90;;;;;;4971005;28;20703;-56
2022/05/30 06:58:30;;;;;;;16.27;3.67;;;15.80;99.90;;;;;;4978984;28;20034;-56
2022/05/30 07:01:02;;;;;;;11.35;3.00;;;15.80;99.90;;;;;;4978559;28;20057;-56
2022/05/30 07:03:28;;;;;;;9.77;2.63;;;15.70;99.90;;;;;;4974866;28;20073;-56
2022/05/30 07:05:54;;;;;;;12.10;3.05;;;15.70;99.90;;;;;;4977138;28;20398;-55
2022/05/30 07:08:19;;;;;;;8.02;2.50;;;15.80;99.90;;;;;;4981854;28;20038;-55
2022/05/30 07:10:45;;;;;;;9.80;2.72;;;15.50;99.90;;;;;;4981996;28;20038;-55
2022/05/30 07:13:12;;;;;;;13.93;3.22;;;15.30;99.90;;;;;;4980551;28;20046;-56
2022/05/30 07:15:38;;;;;;;10.63;3.30;;;15.40;99.90;;;;;;4981546;28;20033;-56
2022/05/30 07:18:09;;;;;;;10.88;3.45;;;14.90;99.90;;;;;;4982428;28;20050;-56
2022/05/30 07:20:35;;;;;;;11.05;3.20;;;14.40;99.90;;;;;;4985458;28;20022;-56
2022/05/30 07:23:01;;;;;;;11.43;4.00;;;14.00;99.90;;;;;;4983743;28;20018;-55
2022/05/30 07:25:26;;;;;;;10.80;3.30;;;14.50;99.90;;;;;;4981869;28;20116;-56
2022/05/30 07:27:52;;;;;;;10.18;3.53;;;14.80;99.90;;;;;;4983111;28;20544;-56
2022/05/30 07:30:18;;;;;;;11.02;3.50;;;14.90;99.90;;;;;;4999407;28;20030;-56
2022/05/30 07:32:43;;;;;;;10.85;3.65;;;14.80;99.90;;;;;;4987465;28;20037;-56
2022/05/30 07:35:09;;;;;;;16.20;3.90;;;14.20;99.90;;;;;;4982677;28;20023;-56
2022/05/30 07:37:35;;;;;;;15.30;3.58;;;14.00;99.90;;;;;;4986655;28;20026;-56
2022/05/30 07:40:01;;;;;;;16.17;3.28;;;13.90;99.90;;;;;;4983232;28;20026;-56
2022/05/30 07:42:27;;;;;;;13.02;3.45;;;13.80;99.90;;;;;;4978261;28;20133;-56
2022/05/30 07:44:52;;;;;;;10.88;3.63;;;14.00;99.90;;;;;;4982264;28;20092;-56
2022/05/30 07:47:18;;;;;;;10.15;2.90;;;14.10;99.90;;;;;;4983847;28;20033;-56
2022/05/30 07:49:45;;;;;;;8.93;3.33;;;14.70;99.90;;;;;;4994440;28;20034;-56
2022/05/30 07:52:11;;;;;;;10.27;3.40;;;15.40;99.90;;;;;;4986952;28;20027;-56
2022/05/30 07:54:36;;;;;;;8.73;3.05;;;16.00;99.90;;;;;;4984630;28;21491;-56
2022/05/30 07:57:06;;;;;;;12.82;3.22;;;16.10;99.90;;;;;;4985675;28;20109;-56
2022/05/30 07:59:32;;;;;;;11.18;3.10;;;16.50;99.90;;;;;;4983264;28;20073;-56
2022/05/30 08:01:58;;;;;;;14.43;3.42;;;17.20;99.90;;;;;;4984688;28;20088;-56
2022/05/30 08:04:24;;;;;;;10.63;3.85;;;18.70;99.90;;;;;;4984484;28;20033;-55
2022/05/30 08:06:51;;;;;;;7.82;2.88;;;20.20;97.30;;;;;;4977778;28;20026;-56
2022/05/30 08:09:17;;;;;;;11.38;3.13;;;20.30;95.60;;;;;;4980593;28;20022;-55
2022/05/30 08:11:43;;;;;;;8.43;2.63;;;19.20;96.70;;;;;;4979661;28;20081;-56
2022/05/30 08:14:10;;;;;;;7.43;2.65;;;18.90;96.50;;;;;;4975739;28;20482;-55
2022/05/30 08:16:37;;;;;;;14.10;3.03;;;19.60;95.70;;;;;;4978905;28;20066;-56
2022/05/30 08:19:05;;;;;;;19.35;2.80;;;19.50;94.90;;;;;;4981089;28;20034;-56
2022/05/30 08:21:30;;;;;;;18.13;2.90;;;19.40;94.80;;;;;;4978112;28;20027;-56
2022/05/30 08:23:56;;;;;;;9.88;2.33;;;19.30;94.70;;;;;;4981542;28;20524;-57
2022/05/30 08:26:21;;;;;;;5.97;1.77;;;19.00;93.90;;;;;;4976984;28;20114;-56
2022/05/30 08:28:47;;;;;;;7.85;2.58;;;18.70;94.00;;;;;;4973434;28;20534;-56
2022/05/30 08:31:12;;;;;;;9.45;2.67;;;18.30;95.10;;;;;;4991773;28;20056;-56
2022/05/30 08:33:38;;;;;;;10.48;2.40;;;17.80;95.70;;;;;;4977784;28;20054;-56
2022/05/30 08:36:11;;;;;;;21.38;3.35;;;18.10;95.80;;;;;;4987012;28;20594;-55
2022/05/30 08:38:37;;;;;;;7.13;2.53;;;18.40;95.50;;;;;;4981862;28;20474;-56
2022/05/30 08:43:54;;;;;;;8.30;2.13;;;18.30;94.80;;;;;;4981415;28;20113;-56
2022/05/30 08:46:49;;;;;;;4.85;1.98;;;18.60;94.10;;;;;;4983529;28;20078;-56
2022/05/30 08:49:22;;;;;;;6.75;2.08;;;18.40;94.40;;;;;;4979415;28;20052;-58
2022/05/30 08:52:15;;;;;;;4.97;1.77;;;18.90;94.00;;;;;;4981836;28;20025;-56
2022/05/30 08:55:11;;;;;;;5.65;1.80;;;19.00;93.00;;;;;;4982276;28;20025;-56
2022/05/30 08:57:44;;;;;;;3.40;1.17;;;18.80;93.10;;;;;;4991498;28;20057;-56
2022/05/30 09:00:28;;;;;;;3.47;1.30;;;18.60;92.50;;;;;;4982764;28;20626;-57
2022/05/30 09:03:10;;;;;;;7.07;1.63;;;17.80;92.90;;;;;;4980029;28;20038;-56
2022/05/30 09:05:43;;;;;;;8.67;1.60;;;16.90;94.50;;;;;;4979672;28;20117;-56
2022/05/30 09:08:15;;;;;;;8.35;1.90;;;16.40;94.60;;;;;;4978615;28;20034;-56
2022/05/30 09:10:50;;;;;;;6.82;1.60;;;16.70;94.90;;;;;;4982254;28;20109;-57
2022/05/30 09:13:47;;;;;;;7.57;1.67;;;16.70;95.60;;;;;;4985685;28;20053;-56
2022/05/30 09:16:34;;;;;;;7.97;1.90;;;16.70;96.40;;;;;;4977507;28;20057;-56
2022/05/30 09:19:03;;;;;;;6.68;1.73;;;16.20;97.10;;;;;;4979520;28;20030;-56
2022/05/30 09:21:33;;;;;;;8.00;2.27;;;16.00;97.60;;;;;;4975970;28;20141;-57
2022/05/30 09:23:59;;;;;;;6.18;2.03;;;15.80;97.70;;;;;;4979632;28;20765;-57
2022/05/30 09:26:28;;;;;;;6.35;1.80;;;15.30;98.40;;;;;;4979906;28;20457;-57
2022/05/30 09:29:00;;;;;;;5.95;1.83;;;15.40;99.20;;;;;;4975125;28;20077;-57
2022/05/30 09:31:49;;;;;;;8.18;2.25;;;15.50;98.80;;;;;;4972454;28;20030;-57
2022/05/30 09:34:40;;;;;;;9.98;2.13;;;15.50;98.80;;;;;;4975159;28;20057;-57
2022/05/30 09:37:06;;;;;;;6.55;2.05;;;15.30;98.60;;;;;;4982056;28;20444;-56
2022/05/30 09:39:47;;;;;;;4.22;2.00;;;15.10;99.50;;;;;;4975526;28;20034;-57
2022/05/30 09:42:28;;;;;;;9.10;2.05;;;14.80;99.40;;;;;;4975749;28;20026;-57
2022/05/30 09:45:07;;;;;;;10.05;2.33;;;15.00;99.90;;;;;;4995240;28;20029;-57
2022/05/30 09:47:34;;;;;;;7.07;2.10;;;15.30;98.30;;;;;;4979036;28;20161;-58
2022/05/30 09:50:14;;;;;;;5.70;1.83;;;15.20;98.50;;;;;;4976176;28;20030;-57
2022/05/30 09:52:40;;;;;;;8.32;1.90;;;15.40;98.50;;;;;;4975934;28;20050;-56
2022/05/30 09:55:26;;;;;;;7.18;2.28;;;15.50;98.90;;;;;;4975578;28;20134;-57
2022/05/30 09:57:53;;;;;;;6.95;1.90;;;15.50;99.30;;;;;;4976176;28;20369;-56
2022/05/30 10:00:20;;;;;;;8.88;2.25;;;15.50;98.80;;;;;;4978495;28;20701;-57
2022/05/30 10:03:07;;;;;;;5.90;2.08;;;16.00;97.90;;;;;;4981872;28;20140;-56
2022/05/30 10:05:34;;;;;;;4.80;2.22;;;16.20;97.50;;;;;;4978046;28;20487;-57
2022/05/30 10:08:03;;;;;;;6.85;2.10;;;16.10;96.90;;;;;;4974245;28;20033;-57
2022/05/30 10:10:32;;;;;;;6.45;2.30;;;16.50;97.20;;;;;;4995343;28;20093;-57
2022/05/30 10:13:04;;;;;;;4.78;1.60;;;16.80;96.00;;;;;;4975757;28;20415;-57
2022/05/30 10:15:38;;;;;;;8.13;2.10;;;17.30;95.60;;;;;;4975981;28;20058;-56
2022/05/30 10:18:13;;;;;;;4.55;1.80;;;17.60;94.50;;;;;;4972208;28;20053;-57
2022/05/30 10:21:22;;;;;;;4.22;1.70;;;18.80;92.90;;;;;;4969119;28;20077;-56
2022/05/30 10:31:00;;;;;;;11.32;2.13;;;18.40;91.90;;;;;;4988093;28;20129;-57
2022/05/30 10:33:54;;;;;;;9.43;2.17;;;17.40;94.10;;;;;;4971117;28;20022;-57
2022/05/30 10:36:46;;;;;;;6.78;2.30;;;16.80;94.50;;;;;;4983865;28;20078;-57
2022/05/30 10:39:33;;;;;;;6.90;2.63;;;16.70;95.00;;;;;;4980657;28;20049;-57
2022/05/30 10:42:02;;;;;;;9.68;2.50;;;16.80;95.50;;;;;;4974570;28;20031;-58
2022/05/30 10:44:32;;;;;;;8.18;2.50;;;17.10;95.10;;;;;;4974649;28;20021;-57
2022/05/30 10:47:16;;;;;;;5.10;2.33;;;17.10;94.60;;;;;;4976278;28;20065;-57
2022/05/30 10:49:49;;;;;;;7.95;2.58;;;16.90;94.80;;;;;;4974859;28;20038;-58
2022/05/30 10:52:32;;;;;;;11.32;2.60;;;16.70;95.30;;;;;;4968489;28;20153;-61
2022/05/30 10:55:04;;;;;;;7.60;2.20;;;16.70;95.40;;;;;;4977843;28;20418;-58
2022/05/30 10:57:50;;;;;;;7.15;2.40;;;16.90;94.80;;;;;;4975870;28;20590;-58
2022/05/30 11:00:16;;;;;;;9.25;2.70;;;17.10;94.50;;;;;;4982879;28;20028;-58
2022/05/30 11:02:50;;;;;;;12.07;2.70;;;17.10;94.60;;;;;;4973543;28;20340;-57
2022/05/30 11:05:30;;;;;;;6.13;2.40;;;16.80;94.60;;;;;;4975836;28;20088;-57
2022/05/30 11:08:20;;;;;;;7.32;2.22;;;16.40;95.60;;;;;;4972131;28;20022;-58
2022/05/30 11:10:59;;;;;;;8.40;2.72;;;16.60;95.90;;;;;;4966509;28;20402;-57
2022/05/30 11:13:27;;;;;;;7.85;2.40;;;16.90;95.60;;;;;;4974229;28;20054;-58
2022/05/30 11:16:01;;;;;;;8.18;2.50;;;16.60;96.60;;;;;;4961428;28;20054;-57
2022/05/30 11:18:55;;;;;;;9.07;2.40;;;16.60;97.10;;;;;;4974533;28;20419;-57
2022/05/30 11:21:37;;;;;;;7.35;2.10;;;16.60;97.30;;;;;;4977414;28;20403;-57
2022/05/30 11:24:04;;;;;;;7.30;2.38;;;16.70;97.60;;;;;;4977108;28;20069;-57
2022/05/30 11:26:58;;;;;;;6.78;2.20;;;16.90;96.20;;;;;;4980850;28;20523;-56
2022/05/30 11:29:45;;;;;;;7.47;2.40;;;16.90;96.00;;;;;;4981859;28;20069;-57
2022/05/30 11:32:45;;;;;;;6.13;2.40;;;16.70;96.70;;;;;;4983159;28;20562;-57
2022/05/30 11:35:35;;;;;;;8.35;2.55;;;16.80;97.00;;;;;;4981379;28;20073;-57
2022/05/30 11:38:10;;;;;;;8.30;2.33;;;17.10;96.60;;;;;;4976102;28;20058;-57
2022/05/30 11:41:00;;;;;;;6.18;2.08;;;17.50;95.60;;;;;;4983939;28;20495;-58
2022/05/30 11:43:48;;;;;;;6.13;2.10;;;17.70;95.20;;;;;;4982775;28;20354;-57
2022/05/30 11:46:25;;;;;;;5.93;2.75;;;18.00;93.80;;;;;;4989571;28;20041;-57
2022/05/30 11:49:05;;;;;;;6.78;2.47;;;18.00;94.30;;;;;;4981984;28;20041;-57
2022/05/30 11:51:45;;;;;;;6.10;2.53;;;17.80;94.70;;;;;;4982907;28;20120;-57
2022/05/30 11:54:19;;;;;;;12.52;3.15;;;17.30;94.90;;;;;;4975365;28;20046;-57
2022/05/30 11:57:11;;;;;;;8.10;2.85;;;16.80;97.00;;;;;;4979146;28;20773;-57
2022/05/30 12:00:04;;;;;;;12.52;3.10;;;17.10;96.10;;;;;;4973455;28;20602;-57
2022/05/30 12:02:33;;;;;;;;;;;17.70;95.40;;;;;;4984526;28;20033;-57
2022/05/30 12:05:23;;;;;;;7.55;3.00;;;18.30;94.60;;;;;;4979710;28;20194;-56
2022/05/30 12:08:16;;;;;;;8.57;2.95;;;19.00;93.90;;;;;;4978050;28;20041;-58
2022/05/30 12:11:06;;;;;;;6.60;2.60;;;19.20;92.10;;;;;;4978760;28;20034;-57
2022/05/30 12:14:13;;;;;;;9.80;3.17;;;18.60;93.50;;;;;;4973977;28;20050;-57
2022/05/30 12:17:13;;;;;;;5.85;2.90;;;18.30;93.40;;;;;;4980618;28;20061;-57
2022/05/30 12:25:35;;;;;;;8.50;3.15;;;17.20;94.40;;;;;;4984585;28;20058;-56
2022/05/30 12:28:06;;;;;;;8.07;3.00;;;16.70;95.00;;;;;;4976993;28;20506;-56
2022/05/30 12:30:35;;;;;;;6.78;3.20;;;16.50;93.90;;;;;;4986383;28;20033;-56
2022/05/30 12:33:21;;;;;;;10.38;3.22;;;17.00;93.80;;;;;;4989862;28;20026;-57
2022/05/30 12:35:47;;;;;;;7.43;2.78;;;17.60;93.60;;;;;;4980712;28;20042;-56
2022/05/30 12:38:15;;;;;;;7.32;3.15;;;17.60;93.50;;;;;;4983194;28;20041;-56
2022/05/30 12:40:43;;;;;;;9.23;3.28;;;17.20;93.60;;;;;;4978672;28;20026;-57
2022/05/30 12:43:33;;;;;;;8.38;3.33;;;17.10;93.90;;;;;;4979277;28;20034;-57
2022/05/30 12:45:58;;;;;;;13.05;3.40;;;17.40;94.60;;;;;;4980603;28;20467;-56
2022/05/30 12:48:44;;;;;;;6.75;3.15;;;17.80;93.80;;;;;;4981223;28;20033;-55
2022/05/30 12:51:37;;;;;;;11.13;3.38;;;17.80;93.00;;;;;;4980289;28;20081;-56
2022/05/30 12:54:02;;;;;;;8.45;3.40;;;17.70;93.30;;;;;;4985165;28;20030;-57
2022/05/30 12:56:37;;;;;;;7.97;3.00;;;17.90;92.90;;;;;;4981546;28;20034;-56
2022/05/30 12:59:03;;;;;;;8.50;2.90;;;18.30;92.70;;;;;;4980182;28;20042;-57
2022/05/30 13:01:51;;;;;;;14.45;3.08;;;18.60;91.50;;;;;;4978676;28;20022;-56
2022/05/30 13:04:19;;;;;;;5.68;3.10;;;18.50;91.60;;;;;;4974667;28;20499;-57
2022/05/30 13:07:13;;;;;;;8.02;2.85;;;18.10;92.20;;;;;;4976365;28;20495;-57
2022/05/30 13:09:42;;;;;;;6.72;2.95;;;18.30;92.20;;;;;;4982375;28;20113;-58
2022/05/30 13:12:11;;;;;;;5.50;2.70;;;17.60;92.60;;;;;;4982618;28;20022;-56
2022/05/30 13:14:36;;;;;;;4.93;2.90;;;17.20;93.40;;;;;;4983809;28;20058;-61
2022/05/30 13:17:40;;;;;;;5.05;2.47;;;17.60;92.90;;;;;;4983197;28;20553;-59
2022/05/30 13:20:12;;;;;;;7.72;2.72;;;18.90;91.80;;;;;;4980414;28;20041;-56
2022/05/30 13:22:52;;;;;;;6.05;3.00;;;20.20;89.70;;;;;;4983672;28;20054;-57
2022/05/30 13:25:20;;;;;;;5.32;2.45;;;21.30;85.40;;;;;;4985580;28;20169;-57
2022/05/30 13:27:48;;;;;;;4.40;2.50;;;21.70;81.50;;;;;;4984625;28;20046;-58
2022/05/30 13:30:20;;;;;;;6.03;2.80;;;22.00;77.30;;;;;;4998019;28;20109;-57
2022/05/30 13:32:45;;;;;;;;;;;22.30;78.90;;;;;;4990534;28;20040;-57